Terminal Aerodrome Forecast
Issued by NWS

Home | Current Version | Previous Version | Text Only | Print | Product List | Glossary On
Versions: 1 2 3 4 5 6 7 8 9 10 11 12 13 14 15
000
FTUS43 KDMX 032329
TAFOTM
TAF
KOTM 032329Z 0400/0424 11007KT P6SM OVC080
     FM040200 12007KT P6SM -RASN OVC040
     FM040500 14009KT P6SM -RASN OVC040
     FM041100 16010KT 2SM -SNRA OVC004
     FM041700 20009KT P6SM -RASN OVC004
     FM041800 22009KT P6SM OVC007
     FM042100 25009KT P6SM BKN110
     FM042200 27007KT P6SM SCT150=

USA.gov is the U.S. government's official web portal to all federal, state and local government web resources and services.